Time;durP1;ratioP1;P1;durP2;ratioP2;P2;SDS_P1;SDS_P2;PMS_P1;PMS_P2;Temp;Humidity;BMP_temperature;BMP_pressure;BME280_temperature;BME280_humidity;BME280_pressure;Samples;Min_cycle;Max_cycle;Signal;HPM_P1;HPM_P2
2022/03/26 00:01:19;;;;;;;64.50;42.53;;;204.90;1945.60;;;;;;4896878;29;20017;-80
2022/03/26 00:03:45;;;;;;;62.05;41.28;;;205.00;1945.60;;;;;;4896832;29;20128;-78
2022/03/26 00:06:12;;;;;;;62.78;44.83;;;205.10;1945.60;;;;;;4897034;29;20484;-80
2022/03/26 00:08:38;;;;;;;48.47;36.85;;;205.10;1945.60;;;;;;4899059;29;20046;-77
2022/03/26 00:11:03;;;;;;;60.17;34.42;;;205.10;1945.60;;;;;;4900584;29;20028;-78
2022/03/26 00:13:29;;;;;;;64.78;41.33;;;205.10;1920.00;;;;;;4900764;29;20029;-80
2022/03/26 00:15:55;;;;;;;60.92;39.72;;;205.00;1945.60;;;;;;4900772;29;20024;-79
2022/03/26 00:18:21;;;;;;;52.08;34.88;;;205.00;1945.60;;;;;;4900443;29;20081;-79
2022/03/26 00:20:47;;;;;;;56.10;37.28;;;204.90;1945.60;;;;;;4900657;29;20035;-79
2022/03/26 00:23:13;;;;;;;61.47;36.55;;;204.90;1945.60;;;;;;4900326;29;20037;-78
2022/03/26 00:25:39;;;;;;;70.53;44.88;;;204.80;1945.60;;;;;;4900606;29;20382;-77
2022/03/26 00:28:05;;;;;;;103.53;59.47;;;180.10;1971.20;;;;;;4901482;29;20100;-80
2022/03/26 00:30:31;;;;;;;76.18;47.28;;;180.10;1971.20;;;;;;4901077;29;20024;-78
2022/03/26 00:32:57;;;;;;;148.73;88.30;;;180.10;1971.20;;;;;;4900435;29;20080;-77
2022/03/26 00:35:23;;;;;;;115.70;67.45;;;180.00;1971.20;;;;;;4900540;29;20028;-77
2022/03/26 00:37:52;;;;;;;167.40;92.68;;;179.90;1996.80;;;;;;4900010;29;20095;-77
2022/03/26 00:40:19;;;;;;;226.88;122.95;;;179.90;1996.80;;;;;;4900259;29;20467;-79
2022/03/26 00:42:44;;;;;;;246.85;134.05;;;179.70;1996.80;;;;;;4901199;29;20079;-80
2022/03/26 00:45:11;;;;;;;129.82;74.72;;;179.70;2022.40;;;;;;4899955;29;20119;-77
2022/03/26 00:47:36;;;;;;;100.68;56.78;;;179.90;1996.80;;;;;;4900297;29;20033;-79
2022/03/26 00:50:03;;;;;;;91.30;54.28;;;179.80;2022.40;;;;;;4901074;29;20114;-77
2022/03/26 00:52:29;;;;;;;96.55;58.95;;;179.50;2022.40;;;;;;4902930;29;20115;-78
2022/03/26 00:54:55;;;;;;;82.07;52.30;;;179.70;2022.40;;;;;;4903302;29;20060;-80
2022/03/26 00:57:21;;;;;;;63.00;41.20;;;179.70;2022.40;;;;;;4903221;29;20348;-79
2022/03/26 00:59:47;;;;;;;73.00;42.80;;;179.60;2048.00;;;;;;4919852;29;20468;-79
2022/03/26 01:02:13;;;;;;;67.68;41.10;;;179.50;2048.00;;;;;;4903134;29;20111;-78
2022/03/26 01:04:39;;;;;;;92.30;56.63;;;179.50;2048.00;;;;;;4902954;29;20047;-78
2022/03/26 01:07:06;;;;;;;75.32;48.03;;;179.60;2048.00;;;;;;4902850;29;20167;-79
2022/03/26 01:09:31;;;;;;;51.10;32.40;;;179.60;2048.00;;;;;;4903078;29;20035;-78
2022/03/26 01:11:57;;;;;;;55.05;34.97;;;179.50;2022.40;;;;;;4902967;29;20028;-78
2022/03/26 01:14:23;;;;;;;44.33;30.75;;;179.40;2048.00;;;;;;4902699;29;20375;-76
2022/03/26 01:16:50;;;;;;;45.67;29.60;;;179.40;2048.00;;;;;;4919886;29;20031;-76
2022/03/26 01:19:16;;;;;;;43.35;28.92;;;179.40;2048.00;;;;;;4902596;29;20028;-77
2022/03/26 01:21:42;;;;;;;45.00;26.67;;;179.40;2048.00;;;;;;4919762;29;20099;-77
2022/03/26 01:24:08;;;;;;;49.25;29.13;;;179.20;2048.00;;;;;;4919575;29;20156;-76
2022/03/26 01:26:35;;;;;;;42.60;26.75;;;154.40;2073.60;;;;;;4919750;29;20027;-76
2022/03/26 01:29:01;;;;;;;58.58;34.83;;;154.50;2073.60;;;;;;4903804;29;20079;-79
2022/03/26 01:31:26;;;;;;;36.03;22.67;;;179.30;2073.60;;;;;;4902847;29;20025;-79
2022/03/26 01:33:52;;;;;;;39.38;23.80;;;179.20;2073.60;;;;;;4902284;29;20024;-77
2022/03/26 01:36:18;;;;;;;51.38;29.73;;;154.50;2073.60;;;;;;4919285;29;20379;-76
2022/03/26 01:38:44;;;;;;;53.58;28.98;;;179.20;2073.60;;;;;;4902509;29;20167;-77
2022/03/26 01:41:10;;;;;;;67.43;41.78;;;179.30;2073.60;;;;;;4902181;29;20079;-77
2022/03/26 01:43:36;;;;;;;63.28;37.95;;;179.20;2073.60;;;;;;4902257;29;20454;-80
2022/03/26 01:46:02;;;;;;;117.30;68.32;;;179.40;2073.60;;;;;;4902519;29;20024;-79
2022/03/26 01:48:29;;;;;;;88.97;52.47;;;179.40;2073.60;;;;;;4902197;29;20100;-77
2022/03/26 01:50:55;;;;;;;41.70;23.58;;;179.30;2073.60;;;;;;4902046;29;20451;-76
2022/03/26 01:53:21;;;;;;;41.50;24.23;;;179.20;2073.60;;;;;;4902188;29;20035;-75
2022/03/26 01:55:50;;;;;;;45.58;24.05;;;179.30;2073.60;;;;;;4901936;29;20028;-79
2022/03/26 01:58:16;;;;;;;43.17;25.75;;;179.20;2073.60;;;;;;4919080;29;20085;-79
2022/03/26 02:00:41;;;;;;;39.15;24.30;;;179.30;2073.60;;;;;;4901679;29;20032;-80
2022/03/26 02:03:08;;;;;;;44.55;23.85;;;179.40;2073.60;;;;;;4901647;29;20032;-79
2022/03/26 02:05:34;;;;;;;39.08;22.60;;;179.40;2048.00;;;;;;4901946;29;20028;-78
2022/03/26 02:08:03;;;;;;;31.48;20.42;;;179.40;2048.00;;;;;;4901817;29;20541;-76
2022/03/26 02:10:29;;;;;;;35.95;20.65;;;179.30;2073.60;;;;;;4901932;29;20134;-79
2022/03/26 02:12:55;;;;;;;29.75;20.15;;;179.30;2073.60;;;;;;4902242;29;20530;-80
2022/03/26 02:15:20;;;;;;;37.05;22.52;;;179.20;2073.60;;;;;;4901418;29;20522;-78
2022/03/26 02:17:46;;;;;;;32.03;20.58;;;154.40;2099.20;;;;;;4901875;29;20024;-78
2022/03/26 02:20:13;;;;;;;30.13;18.13;;;154.50;2099.20;;;;;;4918376;29;20025;-79
2022/03/26 02:22:40;;;;;;;35.20;22.45;;;154.40;2099.20;;;;;;4901467;29;20104;-78
2022/03/26 02:25:08;;;;;;;30.05;18.67;;;154.20;2124.80;;;;;;4901642;29;20043;-80
2022/03/26 02:27:34;;;;;;;32.08;19.58;;;154.10;2124.80;;;;;;4901468;29;20034;-76
2022/03/26 02:30:01;;;;;;;38.33;20.92;;;154.40;2124.80;;;;;;4901039;29;20024;-80
2022/03/26 02:32:28;;;;;;;35.53;18.77;;;154.20;2124.80;;;;;;4901178;29;20016;-78
2022/03/26 02:34:55;;;;;;;33.15;21.08;;;154.20;2124.80;;;;;;4901424;29;20032;-77
2022/03/26 02:37:21;;;;;;;34.15;19.90;;;154.10;2124.80;;;;;;4918066;29;20020;-79
2022/03/26 02:39:47;;;;;;;46.85;25.15;;;154.20;2124.80;;;;;;4918228;29;20043;-77
2022/03/26 02:42:14;;;;;;;38.90;22.15;;;154.20;2124.80;;;;;;4901238;29;20462;-80
2022/03/26 02:44:40;;;;;;;38.08;18.95;;;154.30;2150.40;;;;;;4900902;29;20084;-79
2022/03/26 02:47:08;;;;;;;31.42;17.70;;;154.10;2150.40;;;;;;4901279;29;20035;-79
2022/03/26 02:49:34;;;;;;;30.42;16.85;;;154.10;2150.40;;;;;;4901220;29;20028;-79
2022/03/26 02:52:00;;;;;;;36.40;20.58;;;154.10;2150.40;;;;;;4900679;29;20467;-78
2022/03/26 02:54:26;;;;;;;30.13;18.50;;;153.80;2150.40;;;;;;4901177;29;20035;-80
2022/03/26 02:56:56;;;;;;;27.77;16.73;;;153.70;2176.00;;;;;;4901081;29;20028;-78
2022/03/26 02:59:23;;;;;;;35.40;19.00;;;128.30;2176.00;;;;;;4900740;29;20028;-78
2022/03/26 03:01:49;;;;;;;32.63;19.15;;;128.90;2176.00;;;;;;4900979;29;20114;-78
2022/03/26 03:04:16;;;;;;;29.05;16.63;;;128.80;2201.60;;;;;;4900692;29;20139;-79
2022/03/26 03:06:42;;;;;;;28.90;15.85;;;128.70;2201.60;;;;;;4900976;29;20374;-77
2022/03/26 03:09:08;;;;;;;26.20;15.63;;;128.70;2227.20;;;;;;4917882;29;20024;-78
2022/03/26 03:11:35;;;;;;;25.42;15.27;;;128.70;2201.60;;;;;;4900441;29;20025;-79
2022/03/26 03:14:03;;;;;;;28.38;17.13;;;128.60;2227.20;;;;;;4900921;29;20024;-77
2022/03/26 03:16:29;;;;;;;31.90;16.90;;;128.40;2227.20;;;;;;4900705;29;20469;-78
2022/03/26 03:18:55;;;;;;;29.95;17.02;;;128.60;2227.20;;;;;;4900567;29;20020;-79
2022/03/26 03:21:21;;;;;;;32.22;15.70;;;128.60;2227.20;;;;;;4900711;29;20481;-80
2022/03/26 03:23:46;;;;;;;23.17;14.52;;;128.60;2227.20;;;;;;4917395;29;20034;-77
2022/03/26 03:26:12;;;;;;;29.17;18.45;;;128.40;2227.20;;;;;;4917550;29;20025;-79
2022/03/26 03:28:38;;;;;;;23.85;14.65;;;128.50;2227.20;;;;;;4900654;29;20036;-79
2022/03/26 03:31:04;;;;;;;24.90;15.43;;;128.30;2252.80;;;;;;4917391;29;20046;-78
2022/03/26 03:33:30;;;;;;;26.77;15.40;;;128.10;2252.80;;;;;;4900764;29;20437;-79
2022/03/26 03:35:56;;;;;;;26.55;15.07;;;128.20;2252.80;;;;;;4900614;29;20197;-80
2022/03/26 03:38:24;;;;;;;29.95;13.60;;;128.10;2252.80;;;;;;4900712;29;20117;-79
2022/03/26 03:40:49;;;;;;;29.40;14.18;;;128.30;2252.80;;;;;;4900482;29;20090;-79
2022/03/26 03:43:15;;;;;;;23.50;13.85;;;128.40;2252.80;;;;;;4916705;29;20455;-81
2022/03/26 03:45:41;;;;;;;25.65;16.60;;;128.40;2252.80;;;;;;4900540;29;20099;-80
2022/03/26 03:48:07;;;;;;;24.30;13.98;;;128.40;2252.80;;;;;;4900415;29;20020;-81
2022/03/26 03:50:33;;;;;;;28.77;15.02;;;128.40;2252.80;;;;;;4900355;29;20044;-80
2022/03/26 03:52:59;;;;;;;30.42;15.50;;;128.40;2252.80;;;;;;4900408;29;20035;-80
2022/03/26 03:55:24;;;;;;;36.20;17.42;;;128.30;2252.80;;;;;;4900339;29;20056;-81
2022/03/26 03:57:50;;;;;;;26.83;14.35;;;128.40;2252.80;;;;;;4900462;29;20370;-82
2022/03/26 04:00:16;;;;;;;29.08;16.50;;;128.50;2252.80;;;;;;4917149;29;20028;-81
2022/03/26 04:02:43;;;;;;;39.38;20.50;;;128.40;2252.80;;;;;;4900329;29;20031;-82
2022/03/26 04:05:10;;;;;;;32.53;17.77;;;128.40;2252.80;;;;;;4917624;29;20039;-80
2022/03/26 04:07:42;;;;;;;46.20;24.80;;;128.30;2252.80;;;;;;4900141;29;20482;-81
2022/03/26 04:10:10;;;;;;;47.72;25.38;;;128.40;2252.80;;;;;;4917140;29;20029;-81
2022/03/26 04:12:38;;;;;;;41.33;24.27;;;128.40;2252.80;;;;;;4900262;29;20032;-79
2022/03/26 04:15:05;;;;;;;49.00;24.27;;;128.30;2252.80;;;;;;4899942;29;20028;-81
2022/03/26 04:17:32;;;;;;;49.25;23.92;;;128.30;2252.80;;;;;;4900358;29;20024;-79
2022/03/26 04:19:59;;;;;;;45.10;21.23;;;128.40;2252.80;;;;;;4900308;29;20092;-81
2022/03/26 04:22:25;;;;;;;43.42;19.85;;;128.50;2252.80;;;;;;4900061;29;20363;-80
2022/03/26 04:24:51;;;;;;;48.80;23.45;;;128.60;2252.80;;;;;;4900189;29;20027;-78
2022/03/26 04:27:16;;;;;;;37.50;20.38;;;128.60;2252.80;;;;;;4900225;29;20032;-82
2022/03/26 04:29:42;;;;;;;28.13;16.25;;;128.60;2252.80;;;;;;4900037;29;20348;-81
2022/03/26 04:32:10;;;;;;;33.28;17.67;;;128.60;2252.80;;;;;;4900268;29;20031;-78
2022/03/26 04:34:36;;;;;;;32.70;17.27;;;128.70;2252.80;;;;;;4917416;29;20059;-79
2022/03/26 04:37:03;;;;;;;35.45;17.65;;;128.80;2252.80;;;;;;4899892;29;20031;-79
2022/03/26 04:39:29;;;;;;;36.58;18.85;;;128.80;2252.80;;;;;;4900354;29;20413;-78
2022/03/26 04:41:55;;;;;;;31.75;17.75;;;128.80;2252.80;;;;;;4900052;29;20056;-77
2022/03/26 04:44:20;;;;;;;30.33;16.23;;;128.80;2252.80;;;;;;4916727;29;20032;-79
2022/03/26 04:46:46;;;;;;;26.05;16.17;;;128.70;2252.80;;;;;;4899954;29;20099;-80
2022/03/26 04:49:12;;;;;;;31.50;16.83;;;128.70;2252.80;;;;;;4899776;29;20133;-79
2022/03/26 04:51:38;;;;;;;29.33;17.05;;;128.90;2252.80;;;;;;4916825;29;20482;-78
2022/03/26 04:54:04;;;;;;;24.98;16.02;;;128.70;2252.80;;;;;;4902968;29;20035;-75
2022/03/26 04:56:30;;;;;;;30.05;16.23;;;128.80;2252.80;;;;;;4920125;29;20087;-77
2022/03/26 04:58:56;;;;;;;38.85;24.13;;;128.80;2252.80;;;;;;4912754;29;20028;-81
2022/03/26 05:01:25;;;;;;;37.22;20.95;;;128.50;2252.80;;;;;;4903718;29;20529;-80
2022/03/26 05:03:51;;;;;;;44.13;22.42;;;128.60;2252.80;;;;;;4903186;29;20095;-77
2022/03/26 05:06:17;;;;;;;40.38;23.67;;;128.60;2252.80;;;;;;4920421;29;20032;-79
2022/03/26 05:08:42;;;;;;;34.58;19.88;;;128.70;2252.80;;;;;;4903088;29;20071;-79
2022/03/26 05:11:08;;;;;;;44.85;25.77;;;128.90;2252.80;;;;;;4902719;29;20032;-77
2022/03/26 05:13:34;;;;;;;47.80;25.88;;;153.60;2252.80;;;;;;4903008;29;20056;-81
2022/03/26 05:16:02;;;;;;;44.83;23.92;;;153.60;2252.80;;;;;;4902873;29;20031;-78
2022/03/26 05:18:27;;;;;;;44.13;24.48;;;153.70;2252.80;;;;;;4902707;29;20024;-80
2022/03/26 05:20:56;;;;;;;44.13;25.05;;;128.90;2252.80;;;;;;4903075;29;20055;-78
2022/03/26 05:23:23;;;;;;;35.38;21.45;;;128.70;2252.80;;;;;;4902977;29;20029;-80
2022/03/26 05:25:49;;;;;;;38.42;22.27;;;128.40;2252.80;;;;;;4902266;29;20039;-77
2022/03/26 05:28:15;;;;;;;36.53;22.35;;;128.60;2252.80;;;;;;4902960;29;20024;-81
2022/03/26 05:30:42;;;;;;;38.22;20.85;;;128.70;2252.80;;;;;;4902718;29;20371;-79
2022/03/26 05:33:08;;;;;;;36.42;20.92;;;128.70;2252.80;;;;;;4919577;29;20028;-81
2022/03/26 05:35:34;;;;;;;32.92;20.92;;;128.90;2252.80;;;;;;4902605;29;20107;-80
2022/03/26 05:38:00;;;;;;;36.88;20.48;;;153.70;2252.80;;;;;;4902467;29;20118;-78
2022/03/26 05:40:26;;;;;;;36.53;22.77;;;153.90;2252.80;;;;;;4902644;29;20027;-80
2022/03/26 05:42:53;;;;;;;36.78;21.92;;;153.80;2252.80;;;;;;4902415;29;20028;-81
2022/03/26 05:45:19;;;;;;;46.53;23.38;;;153.80;2252.80;;;;;;4902197;29;20537;-78
2022/03/26 05:47:48;;;;;;;33.67;21.30;;;154.00;2252.80;;;;;;4902329;29;20489;-80
2022/03/26 05:50:14;;;;;;;31.25;19.42;;;153.80;2252.80;;;;;;4902203;29;21718;-81
2022/03/26 05:52:41;;;;;;;35.58;19.98;;;153.90;2252.80;;;;;;4902033;29;20032;-81
2022/03/26 05:55:08;;;;;;;39.25;23.00;;;154.10;2252.80;;;;;;4902151;29;20035;-78
2022/03/26 05:57:33;;;;;;;37.53;20.48;;;154.10;2252.80;;;;;;4902082;29;20035;-81
2022/03/26 06:00:00;;;;;;;31.80;18.38;;;154.10;2252.80;;;;;;4901829;29;20024;-80
2022/03/26 06:02:26;;;;;;;28.65;16.15;;;154.10;2252.80;;;;;;4902145;29;20024;-79
2022/03/26 06:04:52;;;;;;;24.30;14.95;;;154.10;2252.80;;;;;;4901695;29;20052;-79
2022/03/26 06:07:18;;;;;;;29.02;17.95;;;154.10;2252.80;;;;;;4901341;29;20068;-78
2022/03/26 06:09:44;;;;;;;38.88;28.73;;;154.20;2227.20;;;;;;4901903;29;20035;-81
2022/03/26 06:12:10;;;;;;;42.13;27.23;;;154.20;2252.80;;;;;;4901909;29;20055;-80
2022/03/26 06:14:36;;;;;;;35.83;24.27;;;154.30;2252.80;;;;;;4901564;29;20028;-81
2022/03/26 06:17:03;;;;;;;39.67;28.60;;;154.30;2252.80;;;;;;4901726;29;20414;-78
2022/03/26 06:19:29;;;;;;;33.05;20.48;;;154.20;2252.80;;;;;;4901755;29;20493;-78
2022/03/26 06:21:55;;;;;;;30.92;19.20;;;154.30;2252.80;;;;;;4901523;29;20028;-80
2022/03/26 06:24:21;;;;;;;35.17;21.33;;;154.50;2252.80;;;;;;4901590;29;20028;-80
2022/03/26 06:26:48;;;;;;;43.15;27.83;;;179.30;2227.20;;;;;;4901715;29;20035;-76
2022/03/26 06:29:15;;;;;;;59.30;38.15;;;179.30;2227.20;;;;;;4901336;29;20462;-77
2022/03/26 06:31:42;;;;;;;77.85;50.78;;;179.40;2201.60;;;;;;4901497;29;20611;-78
2022/03/26 06:34:07;;;;;;;45.03;29.88;;;179.60;2201.60;;;;;;4901251;29;20159;-78
2022/03/26 06:36:34;;;;;;;74.13;40.30;;;179.60;2176.00;;;;;;4901684;29;20122;-80
2022/03/26 06:39:26;;;;;;;115.07;67.63;;;179.80;2176.00;;;;;;4918432;29;20491;-80
2022/03/26 06:42:01;;;;;;;33.42;20.10;;;179.90;2176.00;;;;;;4900737;29;20024;-78
2022/03/26 06:45:12;;;;;;;51.25;26.45;;;180.10;2150.40;;;;;;4899468;29;20095;-79
2022/03/26 06:57:38;;;;;;;78.20;49.03;;;205.30;2073.60;;;;;;4918086;29;20542;-78
2022/03/26 07:00:05;;;;;;;31.92;19.13;;;205.50;2073.60;;;;;;4901085;29;20028;-78
2022/03/26 07:12:44;;;;;;;31.58;19.08;;;230.60;2048.00;;;;;;4877077;29;20112;-79
2022/03/26 07:15:13;;;;;;;41.83;24.27;;;230.90;2022.40;;;;;;4877406;29;20188;-79
2022/03/26 07:28:44;;;;;;;37.95;21.17;;;256.10;1945.60;;;;;;4877660;29;20061;-78
2022/03/26 07:32:08;;;;;;;;;;;;;;;;;;;;;
2022/03/26 07:38:28;;;;;;;27.15;18.02;;;256.70;1894.40;;;;;;4876745;29;20444;-80
2022/03/26 07:40:54;;;;;;;23.85;15.48;;;281.60;1920.00;;;;;;4861974;29;20029;-78
2022/03/26 07:43:26;;;;;;;25.35;15.90;;;281.70;1894.40;;;;;;4844489;29;20041;-79
2022/03/26 07:45:54;;;;;;;30.70;17.05;;;281.80;1894.40;;;;;;4868584;29;20491;-79
2022/03/26 07:52:02;;;;;;;28.85;17.83;;;282.10;1868.80;;;;;;4829423;29;20091;-78
2022/03/26 07:54:31;;;;;;;30.20;16.40;;;282.30;1868.80;;;;;;4839981;29;20042;-80
2022/03/26 07:57:05;;;;;;;24.45;16.27;;;282.50;1843.20;;;;;;4840514;29;20049;-80
2022/03/26 08:00:06;;;;;;;34.38;16.52;;;307.20;1817.60;;;;;;4854957;29;20119;-76
2022/03/26 20:51:37;;;;;;;154.05;103.05;;;282.40;1843.20;;;;;;4884689;29;20064;-77
2022/03/26 20:54:09;;;;;;;161.30;108.57;;;282.30;1868.80;;;;;;4874381;29;20477;-79
2022/03/26 20:57:11;;;;;;;194.07;120.65;;;282.10;1894.40;;;;;;4875678;29;20100;-80
2022/03/26 20:59:37;;;;;;;160.88;95.82;;;282.10;1894.40;;;;;;4869428;29;20120;-80
2022/03/26 21:02:09;;;;;;;114.75;65.70;;;281.90;1894.40;;;;;;4865938;29;20421;-79
2022/03/26 21:04:59;;;;;;;122.40;73.65;;;281.70;1894.40;;;;;;4865695;29;20037;-79
2022/03/26 21:08:16;;;;;;;116.07;71.80;;;256.90;1868.80;;;;;;4865796;29;20033;-78
2022/03/26 21:11:35;;;;;;;109.88;67.28;;;281.60;1894.40;;;;;;4865291;29;20032;-82
2022/03/26 21:13:48;;;;;;;90.80;56.42;;;256.90;1894.40;;;;;;4872003;29;20044;-83
2022/03/26 21:16:19;;;;;;;134.10;84.82;;;256.70;1894.40;;;;;;4890316;29;20009;-80
2022/03/26 21:18:58;;;;;;;129.95;73.10;;;256.60;1920.00;;;;;;4890443;29;20040;-78
2022/03/26 21:21:49;;;;;;;162.40;102.90;;;256.50;1894.40;;;;;;4889916;29;20077;-76
2022/03/26 21:24:25;;;;;;;144.73;83.55;;;256.50;1920.00;;;;;;4905101;29;20044;-76
2022/03/26 21:27:12;;;;;;;108.15;66.97;;;256.30;1945.60;;;;;;4886893;29;20109;-74
2022/03/26 21:33:57;;;;;;;;;;;;;;;;;;;;;
2022/03/26 21:36:23;;;;;;;115.72;65.70;;;256.10;1920.00;;;;;;4802116;29;20030;-79
2022/03/26 21:39:23;;;;;;;;;;;;;;;;;;;;;
2022/03/26 21:42:03;;;;;;;129.20;76.18;;;256.00;1971.20;;;;;;4871305;29;20040;-83
2022/03/26 21:44:51;;;;;;;157.65;89.60;;;231.30;1945.60;;;;;;4863885;29;20033;-83
2022/03/26 21:47:56;;;;;;;113.43;63.75;;;231.30;1945.60;;;;;;4864093;29;20102;-85
2022/03/26 21:50:44;;;;;;;71.55;46.75;;;231.20;1945.60;;;;;;4808035;29;20061;-82
2022/03/26 21:53:11;;;;;;;61.88;40.65;;;231.10;1945.60;;;;;;4845744;29;20468;-83
2022/03/26 21:55:38;;;;;;;60.70;39.72;;;231.00;1971.20;;;;;;4846032;29;20041;-82
2022/03/26 21:58:08;;;;;;;67.55;37.33;;;230.90;1971.20;;;;;;4831309;29;20568;-83
2022/03/26 22:00:34;;;;;;;50.25;33.95;;;230.90;1971.20;;;;;;4846334;29;20029;-80
2022/03/26 22:03:04;;;;;;;54.58;35.13;;;230.90;1996.80;;;;;;4846323;29;20022;-83
2022/03/26 22:05:30;;;;;;;48.28;29.33;;;230.90;1971.20;;;;;;4846362;29;20026;-79
2022/03/26 22:07:56;;;;;;;55.05;32.45;;;230.90;1971.20;;;;;;4846100;29;20022;-83
2022/03/26 22:10:22;;;;;;;105.55;49.45;;;231.00;1971.20;;;;;;4845772;29;20029;-81
2022/03/26 22:12:49;;;;;;;83.38;39.67;;;230.90;1996.80;;;;;;4846031;29;20028;-84
2022/03/26 22:15:16;;;;;;;61.97;36.47;;;230.70;1996.80;;;;;;4846270;29;20029;-84
2022/03/26 22:17:44;;;;;;;65.03;39.10;;;230.80;1996.80;;;;;;4845648;29;20119;-81
2022/03/26 22:20:13;;;;;;;61.78;38.00;;;230.70;1996.80;;;;;;4846003;29;20029;-81
2022/03/26 22:22:40;;;;;;;121.53;74.57;;;230.80;1996.80;;;;;;4845490;29;20032;-80
2022/03/26 22:25:07;;;;;;;96.47;53.95;;;230.60;1996.80;;;;;;4845935;29;20124;-82
2022/03/26 22:27:34;;;;;;;82.20;47.45;;;230.40;2022.40;;;;;;4845781;29;20032;-83
2022/03/26 22:30:00;;;;;;;61.53;37.80;;;230.60;1996.80;;;;;;4845535;29;20024;-82
2022/03/26 22:32:26;;;;;;;67.93;42.75;;;230.50;1996.80;;;;;;4845826;29;20037;-80
2022/03/26 22:34:52;;;;;;;85.03;49.97;;;205.70;2022.40;;;;;;4845822;29;20074;-87
2022/03/26 22:37:18;;;;;;;95.40;55.30;;;205.60;2048.00;;;;;;4845414;29;20056;-84
2022/03/26 22:43:13;;;;;;;89.45;53.85;;;205.50;2048.00;;;;;;4841913;29;20103;-86
2022/03/26 22:46:04;;;;;;;97.20;53.30;;;205.50;2073.60;;;;;;4826447;29;20541;-86
2022/03/26 22:48:39;;;;;;;112.20;63.05;;;205.50;2073.60;;;;;;4830718;29;20466;-85
2022/03/26 22:51:07;;;;;;;66.53;39.53;;;205.50;2073.60;;;;;;4825549;29;20524;-83
2022/03/26 22:53:34;;;;;;;58.08;32.78;;;205.60;2073.60;;;;;;4835645;29;20400;-84
2022/03/26 22:56:00;;;;;;;54.72;31.67;;;205.60;2073.60;;;;;;4848652;29;20021;-84
2022/03/26 22:58:30;;;;;;;43.78;28.35;;;205.50;2048.00;;;;;;4863691;29;20027;-86
2022/03/26 23:01:05;;;;;;;48.50;26.17;;;205.50;2048.00;;;;;;4863990;29;20120;-85
2022/03/26 23:03:34;;;;;;;46.72;29.45;;;205.40;2073.60;;;;;;4879264;29;20107;-83
2022/03/26 23:06:00;;;;;;;49.85;24.83;;;205.40;2073.60;;;;;;4863621;29;20348;-85
2022/03/26 23:08:26;;;;;;;51.42;30.67;;;205.30;2073.60;;;;;;4863715;29;20081;-86
2022/03/26 23:10:52;;;;;;;49.45;29.42;;;205.30;2073.60;;;;;;4863925;29;20081;-84
2022/03/26 23:13:18;;;;;;;44.45;27.02;;;205.20;2073.60;;;;;;4863577;29;20025;-86
2022/03/26 23:15:44;;;;;;;51.85;29.33;;;204.90;2099.20;;;;;;4863784;29;20464;-85
2022/03/26 23:18:26;;;;;;;39.85;24.77;;;204.80;2124.80;;;;;;4863507;29;20053;-85
2022/03/26 23:20:57;;;;;;;52.70;31.83;;;204.80;2124.80;;;;;;4862900;29;20080;-82
2022/03/26 23:23:23;;;;;;;58.33;34.42;;;180.10;2124.80;;;;;;4863251;29;20076;-83
2022/03/26 23:25:49;;;;;;;49.40;28.42;;;180.10;2150.40;;;;;;4862894;29;20119;-84
2022/03/26 23:28:16;;;;;;;41.20;25.88;;;180.10;2124.80;;;;;;4863250;29;20108;-84
2022/03/26 23:30:42;;;;;;;40.47;29.08;;;204.80;2124.80;;;;;;4863169;29;20076;-84
2022/03/26 23:33:09;;;;;;;39.08;24.65;;;180.10;2150.40;;;;;;4862831;29;20498;-84
2022/03/26 23:35:35;;;;;;;43.95;31.08;;;204.80;2150.40;;;;;;4863389;29;20033;-82
2022/03/26 23:38:01;;;;;;;49.83;27.02;;;180.00;2150.40;;;;;;4863184;29;20028;-84
2022/03/26 23:40:30;;;;;;;45.20;25.73;;;180.10;2150.40;;;;;;4863165;29;20116;-82
2022/03/26 23:42:58;;;;;;;38.58;24.52;;;180.10;2150.40;;;;;;4864123;29;20033;-86
2022/03/26 23:45:24;;;;;;;43.80;27.30;;;180.00;2150.40;;;;;;4864046;29;20375;-84
2022/03/26 23:47:50;;;;;;;36.88;21.92;;;180.10;2150.40;;;;;;4863598;29;20033;-81
2022/03/26 23:50:16;;;;;;;41.95;24.77;;;179.60;2176.00;;;;;;4864421;29;20399;-83
2022/03/26 23:52:42;;;;;;;39.10;23.88;;;179.90;2176.00;;;;;;4865163;29;20119;-84
2022/03/26 23:55:09;;;;;;;35.53;24.60;;;180.00;2150.40;;;;;;4863222;29;20064;-85
2022/03/26 23:57:35;;;;;;;43.05;25.67;;;180.00;2150.40;;;;;;4863223;29;20068;-84
